Time;durP1;ratioP1;P1;durP2;ratioP2;P2;SDS_P1;SDS_P2;PMS_P1;PMS_P2;Temp;Humidity;BMP_temperature;BMP_pressure;BME280_temperature;BME280_humidity;BME280_pressure;Samples;Min_cycle;Max_cycle;Signal;HPM_P1;HPM_P2
2023/09/25 00:01:12;;;;;;;2.88;2.67;;;;;;;;;;6282721;28;20294;-70
2023/09/25 00:04:15;;;;;;;4.22;3.00;;;;;;;;;;6282184;28;20307;-70
2023/09/25 00:07:20;;;;;;;4.47;2.83;;;;;;;;;;6282288;28;20602;-72
2023/09/25 00:10:24;;;;;;;6.68;3.00;;;;;;;;;;6282386;28;20611;-70
2023/09/25 00:13:28;;;;;;;3.67;3.38;;;;;;;;;;6282068;28;20493;-72
2023/09/25 00:16:34;;;;;;;7.28;2.90;;;;;;;;;;6282402;28;20303;-72
2023/09/25 00:19:38;;;;;;;6.95;2.50;;;;;;;;;;6288305;28;20322;-71
2023/09/25 00:22:42;;;;;;;3.03;2.85;;;;;;;;;;6290203;28;20299;-70
2023/09/25 00:25:46;;;;;;;6.65;2.92;;;;;;;;;;6290731;28;20291;-70
2023/09/25 00:28:50;;;;;;;2.60;2.42;;;;;;;;;;6290086;28;20556;-71
2023/09/25 00:31:57;;;;;;;2.97;2.78;;;;;;;;;;6290189;28;20303;-70
2023/09/25 00:35:01;;;;;;;4.30;2.58;;;;;;;;;;6304972;28;20302;-71
2023/09/25 00:38:05;;;;;;;4.10;2.85;;;;;;;;;;6289845;28;20321;-69
2023/09/25 00:41:09;;;;;;;6.07;2.78;;;;;;;;;;6270853;28;20331;-69
2023/09/25 00:44:13;;;;;;;2.80;2.60;;;;;;;;;;6264927;28;20299;-70
2023/09/25 00:47:20;;;;;;;3.45;2.60;;;;;;;;;;6264378;28;20258;-71
2023/09/25 00:50:29;;;;;;;5.30;3.30;;;;;;;;;;6265213;28;20303;-71
2023/09/25 00:53:34;;;;;;;4.78;2.65;;;;;;;;;;6265008;28;20307;-70
2023/09/25 00:56:38;;;;;;;2.92;2.70;;;;;;;;;;6265265;28;20360;-73
2023/09/25 00:59:43;;;;;;;4.05;2.95;;;;;;;;;;6279854;28;20465;-72
2023/09/25 01:02:48;;;;;;;21.80;3.40;;;;;;;;;;6262830;28;20283;-71
2023/09/25 01:05:52;;;;;;;3.10;2.90;;;;;;;;;;6265225;28;20327;-73
2023/09/25 01:08:56;;;;;;;3.38;3.00;;;;;;;;;;6279830;28;20299;-71
2023/09/25 01:12:00;;;;;;;4.78;2.83;;;;;;;;;;6265072;28;20323;-70
2023/09/25 01:15:05;;;;;;;6.93;3.35;;;;;;;;;;6264598;28;20299;-69
2023/09/25 01:18:10;;;;;;;2.95;2.70;;;;;;;;;;6264329;28;20613;-70
2023/09/25 01:21:14;;;;;;;3.40;3.10;;;;;;;;;;6264888;28;20604;-71
2023/09/25 01:24:20;;;;;;;3.10;2.85;;;;;;;;;;6264541;28;20306;-70
2023/09/25 01:27:24;;;;;;;5.38;2.67;;;;;;;;;;6264946;28;20508;-70
2023/09/25 01:30:30;;;;;;;3.63;3.35;;;;;;;;;;6261290;28;20516;-70
2023/09/25 01:33:34;;;;;;;3.35;2.70;;;;;;;;;;6258499;28;20491;-71
2023/09/25 01:36:38;;;;;;;3.17;2.97;;;;;;;;;;6260930;28;20256;-71
2023/09/25 01:39:44;;;;;;;4.40;2.78;;;;;;;;;;6258595;28;20307;-71
2023/09/25 01:42:48;;;;;;;3.40;2.90;;;;;;;;;;6260436;28;20493;-70
2023/09/25 01:45:52;;;;;;;3.08;2.97;;;;;;;;;;6275818;28;20234;-70
2023/09/25 01:48:57;;;;;;;4.60;2.92;;;;;;;;;;6260382;28;20307;-71
2023/09/25 01:52:06;;;;;;;6.85;2.85;;;;;;;;;;6260679;28;20334;-70
2023/09/25 01:55:12;;;;;;;4.78;3.00;;;;;;;;;;6260108;28;20300;-70
2023/09/25 01:58:16;;;;;;;6.68;2.97;;;;;;;;;;6260209;28;20450;-71
2023/09/25 02:01:20;;;;;;;4.63;2.90;;;;;;;;;;6259508;28;20604;-70
2023/09/25 02:04:23;;;;;;;3.15;2.95;;;;;;;;;;6259705;28;20588;-71
2023/09/25 02:07:28;;;;;;;5.07;2.95;;;;;;;;;;6258504;28;20291;-71
2023/09/25 02:10:35;;;;;;;5.10;2.85;;;;;;;;;;6257597;28;20616;-71
2023/09/25 02:13:38;;;;;;;4.28;2.83;;;;;;;;;;6259018;28;20624;-71
2023/09/25 02:16:42;;;;;;;3.85;2.67;;;;;;;;;;6260267;28;20302;-71
2023/09/25 02:19:46;;;;;;;15.70;3.15;;;;;;;;;;6257959;28;20292;-71
2023/09/25 02:22:51;;;;;;;2.80;2.63;;;;;;;;;;6277664;28;20291;-72
2023/09/25 02:25:56;;;;;;;3.53;3.13;;;;;;;;;;6284600;28;20302;-71
2023/09/25 02:29:00;;;;;;;3.25;2.95;;;;;;;;;;6283996;28;20312;-71
2023/09/25 02:32:04;;;;;;;3.05;2.80;;;;;;;;;;6284204;28;20299;-71
2023/09/25 02:35:09;;;;;;;2.80;2.70;;;;;;;;;;6282141;28;20294;-70
2023/09/25 02:38:12;;;;;;;3.75;2.88;;;;;;;;;;6299184;28;20508;-70
2023/09/25 02:41:17;;;;;;;2.70;2.60;;;;;;;;;;6263420;28;20295;-70
2023/09/25 02:44:21;;;;;;;6.53;3.03;;;;;;;;;;6258779;28;20305;-70
2023/09/25 02:47:25;;;;;;;3.15;2.92;;;;;;;;;;6259186;28;20322;-71
2023/09/25 02:50:29;;;;;;;5.70;3.13;;;;;;;;;;6259146;28;20450;-70
2023/09/25 02:53:33;;;;;;;3.20;2.80;;;;;;;;;;6258636;28;20299;-71
2023/09/25 02:56:38;;;;;;;5.10;2.80;;;;;;;;;;6257394;28;20303;-71
2023/09/25 02:59:42;;;;;;;6.03;2.80;;;;;;;;;;6258558;28;20493;-71
2023/09/25 03:02:46;;;;;;;6.00;3.22;;;;;;;;;;6256587;28;20486;-71
2023/09/25 03:05:50;;;;;;;2.92;2.67;;;;;;;;;;6263515;28;20588;-72
2023/09/25 03:08:53;;;;;;;4.50;2.65;;;;;;;;;;6258147;28;20284;-72
2023/09/25 03:11:59;;;;;;;7.97;3.30;;;;;;;;;;6244792;28;20296;-70
2023/09/25 03:15:04;;;;;;;5.10;2.83;;;;;;;;;;6233717;28;20304;-71
2023/09/25 03:18:11;;;;;;;2.63;2.53;;;;;;;;;;6232588;28;20304;-71
2023/09/25 03:21:18;;;;;;;8.05;3.08;;;;;;;;;;6250744;28;20304;-72
2023/09/25 03:24:21;;;;;;;4.25;2.95;;;;;;;;;;6256532;28;20588;-73
2023/09/25 03:27:27;;;;;;;3.35;2.60;;;;;;;;;;6257202;28;20327;-70
2023/09/25 03:30:31;;;;;;;3.35;2.67;;;;;;;;;;6257863;28;20303;-71
2023/09/25 03:33:35;;;;;;;3.75;2.60;;;;;;;;;;6257177;28;20608;-71
2023/09/25 03:36:38;;;;;;;2.78;2.60;;;;;;;;;;6257240;28;20287;-70
2023/09/25 03:39:42;;;;;;;5.05;2.92;;;;;;;;;;6254049;28;20591;-71
2023/09/25 03:42:48;;;;;;;2.70;2.30;;;;;;;;;;6256453;28;20280;-71
2023/09/25 03:45:51;;;;;;;3.40;2.55;;;;;;;;;;6255554;28;20319;-71
2023/09/25 03:49:01;;;;;;;3.38;2.35;;;;;;;;;;6255818;28;20291;-71
2023/09/25 03:52:05;;;;;;;3.00;2.80;;;;;;;;;;6256175;28;20303;-70
2023/09/25 03:55:09;;;;;;;7.00;2.40;;;;;;;;;;6256972;28;20296;-71
2023/09/25 03:58:15;;;;;;;6.35;2.72;;;;;;;;;;6256471;28;20308;-71
2023/09/25 04:01:19;;;;;;;10.23;2.30;;;;;;;;;;6272944;28;20449;-69
2023/09/25 04:04:22;;;;;;;3.10;2.83;;;;;;;;;;6257397;28;20296;-71
2023/09/25 04:07:27;;;;;;;3.55;2.47;;;;;;;;;;6257623;28;20599;-71
2023/09/25 04:10:31;;;;;;;4.85;2.75;;;;;;;;;;6257240;28;20296;-70
2023/09/25 04:13:36;;;;;;;3.63;2.60;;;;;;;;;;6257350;28;20481;-71
2023/09/25 04:16:40;;;;;;;5.57;2.67;;;;;;;;;;6257666;28;20567;-70
2023/09/25 04:19:44;;;;;;;7.35;2.58;;;;;;;;;;6257242;28;20298;-71
2023/09/25 04:22:48;;;;;;;2.53;2.42;;;;;;;;;;6256078;28;20304;-72
2023/09/25 04:25:52;;;;;;;3.53;2.20;;;;;;;;;;6255224;28;20332;-70
2023/09/25 04:28:58;;;;;;;3.25;2.50;;;;;;;;;;6256998;28;20338;-70
2023/09/25 04:32:03;;;;;;;3.45;2.17;;;;;;;;;;6257047;28;20311;-70
2023/09/25 04:35:09;;;;;;;5.40;2.30;;;;;;;;;;6256917;28;20299;-70
2023/09/25 04:38:13;;;;;;;4.80;2.40;;;;;;;;;;6257137;28;20499;-70
2023/09/25 04:41:17;;;;;;;2.00;1.95;;;;;;;;;;6254732;28;20295;-69
2023/09/25 04:44:23;;;;;;;2.53;2.35;;;;;;;;;;6256588;28;20323;-70
2023/09/25 04:47:27;;;;;;;4.88;2.58;;;;;;;;;;6257144;28;20295;-69
2023/09/25 04:50:31;;;;;;;4.70;2.42;;;;;;;;;;6256891;28;20291;-70
2023/09/25 04:53:34;;;;;;;3.75;2.10;;;;;;;;;;6256799;28;20299;-70
2023/09/25 04:56:38;;;;;;;7.07;2.28;;;;;;;;;;6257243;28;20599;-71
2023/09/25 04:59:44;;;;;;;5.10;2.25;;;;;;;;;;6256661;28;20303;-71
2023/09/25 05:02:48;;;;;;;8.00;2.22;;;;;;;;;;6257215;28;20299;-70
2023/09/25 05:05:52;;;;;;;2.58;2.40;;;;;;;;;;6257266;28;20327;-70
2023/09/25 05:08:56;;;;;;;4.65;2.47;;;;;;;;;;6261293;28;20295;-70
2023/09/25 05:12:00;;;;;;;2.08;1.98;;;;;;;;;;6261510;28;20299;-70
2023/09/25 05:15:07;;;;;;;5.85;2.60;;;;;;;;;;6261232;28;20299;-71
2023/09/25 05:18:11;;;;;;;2.28;2.08;;;;;;;;;;6261662;28;20304;-71
2023/09/25 05:21:15;;;;;;;3.10;2.00;;;;;;;;;;6261265;28;20603;-73
2023/09/25 05:24:19;;;;;;;2.28;2.17;;;;;;;;;;6261185;28;20299;-71
2023/09/25 05:27:23;;;;;;;4.95;2.38;;;;;;;;;;6261022;28;20310;-71
2023/09/25 05:30:30;;;;;;;4.43;2.20;;;;;;;;;;6260691;28;20312;-71
2023/09/25 05:33:33;;;;;;;5.50;2.58;;;;;;;;;;6260012;28;20303;-71
2023/09/25 05:36:37;;;;;;;5.75;2.45;;;;;;;;;;6261048;28;20236;-72
2023/09/25 05:39:41;;;;;;;4.15;2.40;;;;;;;;;;6258678;28;20291;-69
2023/09/25 05:42:47;;;;;;;1.98;1.88;;;;;;;;;;6260432;28;20597;-70
2023/09/25 05:45:52;;;;;;;4.47;2.10;;;;;;;;;;6260483;28;20236;-70
2023/09/25 05:48:57;;;;;;;6.90;2.15;;;;;;;;;;6260563;28;20660;-70
2023/09/25 05:52:03;;;;;;;10.27;3.03;;;;;;;;;;6259281;28;20303;-72
2023/09/25 05:55:08;;;;;;;4.25;2.42;;;;;;;;;;6260047;28;20304;-70
2023/09/25 05:58:12;;;;;;;12.43;2.33;;;;;;;;;;6260537;28;20299;-71
2023/09/25 06:01:18;;;;;;;4.40;2.05;;;;;;;;;;6259912;28;20300;-70
2023/09/25 06:04:22;;;;;;;7.68;2.25;;;;;;;;;;6257396;28;20708;-71
2023/09/25 06:07:26;;;;;;;5.22;2.25;;;;;;;;;;6260260;28;20319;-68
2023/09/25 06:10:30;;;;;;;6.40;2.33;;;;;;;;;;6259809;28;20288;-71
2023/09/25 06:13:34;;;;;;;7.45;2.08;;;;;;;;;;6259432;28;20299;-71
2023/09/25 06:16:40;;;;;;;3.55;2.30;;;;;;;;;;6259221;28;20607;-71
2023/09/25 06:19:44;;;;;;;7.30;2.08;;;;;;;;;;6259651;28;20656;-70
2023/09/25 06:22:48;;;;;;;7.85;2.92;;;;;;;;;;6259906;28;20303;-73
2023/09/25 06:25:53;;;;;;;7.15;2.30;;;;;;;;;;6259374;28;20288;-70
2023/09/25 06:28:58;;;;;;;3.30;2.30;;;;;;;;;;6258945;28;20303;-72
2023/09/25 06:32:04;;;;;;;3.83;2.55;;;;;;;;;;6259275;28;20307;-70
2023/09/25 06:35:09;;;;;;;6.00;2.42;;;;;;;;;;6259209;28;20295;-71
2023/09/25 06:38:13;;;;;;;7.18;2.38;;;;;;;;;;6259323;28;20303;-69
2023/09/25 06:41:17;;;;;;;6.45;2.65;;;;;;;;;;6254621;28;20437;-70
2023/09/25 06:44:21;;;;;;;6.53;2.17;;;;;;;;;;6258737;28;20299;-71
2023/09/25 06:47:26;;;;;;;2.40;2.30;;;;;;;;;;6258865;28;20291;-73
2023/09/25 06:50:30;;;;;;;11.38;2.45;;;;;;;;;;6258732;28;20303;-72
2023/09/25 06:53:34;;;;;;;6.10;2.85;;;;;;;;;;6258831;28;20292;-71
2023/09/25 06:56:38;;;;;;;6.50;2.50;;;;;;;;;;6258148;28;20487;-70
2023/09/25 06:59:42;;;;;;;4.50;2.15;;;;;;;;;;6258397;28;20295;-70
2023/09/25 07:02:47;;;;;;;7.82;2.60;;;;;;;;;;6258882;28;20295;-71
2023/09/25 07:05:51;;;;;;;9.75;2.50;;;;;;;;;;6258424;28;20323;-72
2023/09/25 07:08:55;;;;;;;3.15;2.42;;;;;;;;;;6258177;28;20291;-73
2023/09/25 07:11:59;;;;;;;4.20;1.90;;;;;;;;;;6258785;28;20449;-73
2023/09/25 07:15:04;;;;;;;2.60;1.55;;;;;;;;;;6258401;28;20303;-71
2023/09/25 07:18:09;;;;;;;5.68;2.38;;;;;;;;;;6258432;28;20599;-71
2023/09/25 07:21:15;;;;;;;5.55;2.10;;;;;;;;;;6258212;28;20718;-71
2023/09/25 07:24:19;;;;;;;2.50;2.00;;;;;;;;;;6257955;28;20304;-71
2023/09/25 07:27:23;;;;;;;5.85;2.42;;;;;;;;;;6257484;28;20343;-71
2023/09/25 07:30:27;;;;;;;3.15;2.00;;;;;;;;;;6257889;28;20307;-71
2023/09/25 07:33:33;;;;;;;5.75;2.22;;;;;;;;;;6257362;28;20331;-71
2023/09/25 07:36:36;;;;;;;6.88;1.90;;;;;;;;;;6255691;28;20280;-71
2023/09/25 07:39:41;;;;;;;6.75;1.88;;;;;;;;;;6255748;28;20307;-72
2023/09/25 07:42:45;;;;;;;9.35;1.77;;;;;;;;;;6255446;28;20288;-70
2023/09/25 07:45:49;;;;;;;2.17;2.00;;;;;;;;;;6213021;28;20453;-71
2023/09/25 07:48:56;;;;;;;2.03;1.92;;;;;;;;;;6212511;28;20304;-72
2023/09/25 07:52:00;;;;;;;2.03;1.75;;;;;;;;;;6233320;28;20296;-74
2023/09/25 07:55:06;;;;;;;1.85;1.75;;;;;;;;;;6218781;28;20304;-71
2023/09/25 07:58:12;;;;;;;2.17;2.05;;;;;;;;;;6212291;28;20541;-72
2023/09/25 08:01:16;;;;;;;5.28;2.10;;;;;;;;;;6232453;28;20300;-70
2023/09/25 08:04:22;;;;;;;9.43;2.20;;;;;;;;;;6224872;28;20313;-70
2023/09/25 08:07:26;;;;;;;4.25;2.05;;;;;;;;;;6214223;28;20308;-70
2023/09/25 08:10:31;;;;;;;2.40;1.90;;;;;;;;;;6235524;28;20600;-71
2023/09/25 08:13:34;;;;;;;2.08;1.83;;;;;;;;;;6255188;28;20296;-71
2023/09/25 08:16:39;;;;;;;2.83;1.65;;;;;;;;;;6257639;28;20356;-71
2023/09/25 08:19:45;;;;;;;4.63;2.10;;;;;;;;;;6256775;28;20292;-71
2023/09/25 08:22:49;;;;;;;3.45;2.08;;;;;;;;;;6257467;28;20315;-71
2023/09/25 08:25:53;;;;;;;3.08;1.85;;;;;;;;;;6257017;28;20347;-71
2023/09/25 08:28:57;;;;;;;2.75;1.40;;;;;;;;;;6254881;28;20306;-71
2023/09/25 08:32:01;;;;;;;4.45;1.70;;;;;;;;;;6255201;28;20303;-72
2023/09/25 08:35:09;;;;;;;2.90;1.77;;;;;;;;;;6256652;28;20303;-71
2023/09/25 08:38:13;;;;;;;2.97;1.60;;;;;;;;;;6257193;28;20303;-71
2023/09/25 08:41:19;;;;;;;2.97;1.45;;;;;;;;;;6259169;28;20338;-73
2023/09/25 08:44:23;;;;;;;3.70;1.70;;;;;;;;;;6252001;28;20296;-72
2023/09/25 08:47:27;;;;;;;5.65;1.90;;;;;;;;;;6252852;28;20291;-70
2023/09/25 08:50:33;;;;;;;5.28;1.52;;;;;;;;;;6261641;28;20616;-71
2023/09/25 08:53:37;;;;;;;8.95;1.90;;;;;;;;;;6261473;28;20307;-72
2023/09/25 08:56:43;;;;;;;1.63;1.60;;;;;;;;;;6262063;28;20500;-70
2023/09/25 08:59:47;;;;;;;2.08;1.65;;;;;;;;;;6261353;28;20295;-72
2023/09/25 09:02:51;;;;;;;3.78;1.50;;;;;;;;;;6261679;28;20615;-71
2023/09/25 09:05:57;;;;;;;3.25;1.52;;;;;;;;;;6261008;28;20330;-71
2023/09/25 09:09:01;;;;;;;5.00;1.63;;;;;;;;;;6260799;28;20296;-71
2023/09/25 09:12:07;;;;;;;5.53;1.48;;;;;;;;;;6261492;28;20330;-71
2023/09/25 09:15:24;;;;;;;2.35;1.70;;;;;;;;;;6260889;28;20298;-70
2023/09/25 09:18:29;;;;;;;4.43;1.65;;;;;;;;;;6260766;28;20287;-72
2023/09/25 09:21:34;;;;;;;3.63;1.98;;;;;;;;;;6261024;28;20292;-71
2023/09/25 09:24:39;;;;;;;9.05;1.63;;;;;;;;;;6250323;28;20300;-71
2023/09/25 09:27:46;;;;;;;3.63;1.63;;;;;;;;;;6261027;28;20240;-71
2023/09/25 09:30:50;;;;;;;4.72;1.88;;;;;;;;;;6260373;28;20323;-71
2023/09/25 09:33:55;;;;;;;2.03;1.70;;;;;;;;;;6260389;28;20497;-71
2023/09/25 09:37:01;;;;;;;4.70;1.90;;;;;;;;;;6261073;28;20304;-70
2023/09/25 09:40:11;;;;;;;3.60;1.50;;;;;;;;;;6258741;28;20589;-70
2023/09/25 09:43:15;;;;;;;6.35;1.50;;;;;;;;;;6260613;28;20295;-71
2023/09/25 09:46:20;;;;;;;2.40;1.27;;;;;;;;;;6260390;28;20307;-72
2023/09/25 09:49:25;;;;;;;3.38;1.90;;;;;;;;;;6260200;28;20311;-72
2023/09/25 09:52:32;;;;;;;5.75;1.58;;;;;;;;;;6259778;28;20333;-72
2023/09/25 09:55:38;;;;;;;2.40;1.80;;;;;;;;;;6259850;28;20498;-72
2023/09/25 09:58:42;;;;;;;5.30;1.90;;;;;;;;;;6260170;28;20296;-70
2023/09/25 10:01:48;;;;;;;4.72;1.90;;;;;;;;;;6260400;28;20295;-70
2023/09/25 10:04:53;;;;;;;2.03;1.73;;;;;;;;;;6260056;28;20295;-70
2023/09/25 10:08:09;;;;;;;4.10;1.75;;;;;;;;;;6260310;28;20518;-71
2023/09/25 10:11:17;;;;;;;5.70;1.80;;;;;;;;;;6259698;28;20299;-70
2023/09/25 10:14:22;;;;;;;3.75;1.85;;;;;;;;;;6259698;28;20300;-70
2023/09/25 10:17:34;;;;;;;1.77;1.60;;;;;;;;;;6259971;28;20375;-73
2023/09/25 10:20:41;;;;;;;3.03;1.80;;;;;;;;;;6259689;28;20319;-71
2023/09/25 10:23:48;;;;;;;3.10;1.48;;;;;;;;;;6259447;28;20296;-71
2023/09/25 10:26:53;;;;;;;2.58;1.75;;;;;;;;;;6260197;28;20295;-72
2023/09/25 10:30:08;;;;;;;4.10;1.65;;;;;;;;;;6257172;28;20443;-72
2023/09/25 10:33:12;;;;;;;1.92;1.55;;;;;;;;;;6259239;28;20328;-71
2023/09/25 10:36:15;;;;;;;2.00;1.75;;;;;;;;;;6259190;28;20295;-71
2023/09/25 10:39:20;;;;;;;3.20;1.67;;;;;;;;;;6257237;28;20503;-71
2023/09/25 10:42:25;;;;;;;2.08;1.42;;;;;;;;;;6259381;28;20283;-70
2023/09/25 10:45:29;;;;;;;1.90;1.55;;;;;;;;;;6258928;28;20621;-70
2023/09/25 10:48:33;;;;;;;1.92;1.55;;;;;;;;;;6258642;28;20283;-70
2023/09/25 10:51:38;;;;;;;5.45;1.63;;;;;;;;;;6258293;28;20275;-71
2023/09/25 10:54:43;;;;;;;6.13;2.15;;;;;;;;;;6258623;28;20304;-71
2023/09/25 10:57:47;;;;;;;1.98;1.77;;;;;;;;;;6258902;28;20497;-70
2023/09/25 11:00:53;;;;;;;3.30;1.45;;;;;;;;;;6256777;28;20299;-71
2023/09/25 11:03:59;;;;;;;2.08;1.90;;;;;;;;;;6258462;28;20303;-70
2023/09/25 11:07:04;;;;;;;3.00;1.40;;;;;;;;;;6258826;28;20296;-70
2023/09/25 11:10:13;;;;;;;4.60;1.63;;;;;;;;;;6258263;28;20437;-71
2023/09/25 11:13:17;;;;;;;1.75;1.67;;;;;;;;;;6234088;28;20461;-70
2023/09/25 11:16:21;;;;;;;2.15;1.30;;;;;;;;;;6209736;28;20305;-71
2023/09/25 11:19:25;;;;;;;1.90;1.55;;;;;;;;;;6217317;28;20381;-70
2023/09/25 11:22:29;;;;;;;1.60;1.60;;;;;;;;;;6234092;28;20546;-71
2023/09/25 11:25:41;;;;;;;3.22;2.10;;;;;;;;;;6215845;28;20301;-71
2023/09/25 11:28:45;;;;;;;1.92;1.60;;;;;;;;;;6218839;28;20312;-71
2023/09/25 11:31:48;;;;;;;4.85;1.83;;;;;;;;;;6233689;28;20347;-71
2023/09/25 11:35:06;;;;;;;3.97;1.80;;;;;;;;;;6222758;28;20296;-70
2023/09/25 11:38:17;;;;;;;3.25;1.55;;;;;;;;;;6211729;28;20305;-70
2023/09/25 11:41:23;;;;;;;1.98;1.80;;;;;;;;;;6249912;28;20311;-71
2023/09/25 11:44:26;;;;;;;2.10;1.80;;;;;;;;;;6257787;28;20307;-70
2023/09/25 11:47:30;;;;;;;2.42;1.60;;;;;;;;;;6258276;28;20319;-70
2023/09/25 11:50:35;;;;;;;3.88;1.73;;;;;;;;;;6257701;28;20308;-72
2023/09/25 11:53:39;;;;;;;2.50;1.50;;;;;;;;;;6257390;28;20295;-72
2023/09/25 11:56:44;;;;;;;1.88;1.77;;;;;;;;;;6257950;28;20295;-69
2023/09/25 11:59:48;;;;;;;3.45;1.98;;;;;;;;;;6257153;28;20292;-70
2023/09/25 12:02:52;;;;;;;3.95;1.80;;;;;;;;;;6257807;28;20295;-70
2023/09/25 12:05:56;;;;;;;5.82;1.80;;;;;;;;;;6255714;28;20302;-70
2023/09/25 12:09:10;;;;;;;2.22;1.77;;;;;;;;;;6257232;28;20307;-71
2023/09/25 12:12:15;;;;;;;2.92;1.80;;;;;;;;;;6257569;28;20295;-71
2023/09/25 12:15:19;;;;;;;4.35;1.73;;;;;;;;;;6256873;28;20312;-70
2023/09/25 12:18:23;;;;;;;3.65;1.70;;;;;;;;;;6257486;28;20303;-70
2023/09/25 12:21:27;;;;;;;2.10;2.00;;;;;;;;;;6254767;28;20284;-70
2023/09/25 12:24:31;;;;;;;2.75;1.70;;;;;;;;;;6256984;28;20612;-70
2023/09/25 12:27:36;;;;;;;4.15;1.60;;;;;;;;;;6256623;28;20272;-70
2023/09/25 12:30:40;;;;;;;2.30;1.80;;;;;;;;;;6256371;28;20299;-70
2023/09/25 12:33:44;;;;;;;2.50;1.95;;;;;;;;;;6256482;28;20299;-71
2023/09/25 12:36:48;;;;;;;2.25;1.98;;;;;;;;;;6257369;28;20252;-71
2023/09/25 12:39:52;;;;;;;4.32;1.80;;;;;;;;;;6254968;28;20477;-69
2023/09/25 12:42:57;;;;;;;4.57;1.98;;;;;;;;;;6256942;28;20319;-71
2023/09/25 12:46:01;;;;;;;3.20;1.50;;;;;;;;;;6256679;28;20296;-71
2023/09/25 12:49:05;;;;;;;10.55;2.25;;;;;;;;;;6256872;28;20295;-70
2023/09/25 12:52:09;;;;;;;5.07;2.10;;;;;;;;;;6257152;28;20484;-69
2023/09/25 12:55:13;;;;;;;2.60;1.80;;;;;;;;;;6256268;28;20303;-70
2023/09/25 12:58:18;;;;;;;7.45;1.80;;;;;;;;;;6257081;28;20576;-70
2023/09/25 13:01:23;;;;;;;8.25;2.10;;;;;;;;;;6256675;28;20323;-71
2023/09/25 13:04:27;;;;;;;4.28;2.15;;;;;;;;;;6256474;28;20303;-72
2023/09/25 13:07:30;;;;;;;2.90;2.00;;;;;;;;;;6256791;28;20319;-70
2023/09/25 13:10:34;;;;;;;1.80;1.80;;;;;;;;;;6256229;28;20291;-71
2023/09/25 13:13:39;;;;;;;5.95;2.00;;;;;;;;;;6256468;28;20295;-70
2023/09/25 13:16:44;;;;;;;3.50;1.73;;;;;;;;;;6256628;28;20484;-73
2023/09/25 13:19:48;;;;;;;2.63;1.60;;;;;;;;;;6256084;28;20493;-70
2023/09/25 13:22:52;;;;;;;4.50;2.00;;;;;;;;;;6256692;28;20299;-70
2023/09/25 13:25:56;;;;;;;2.90;1.80;;;;;;;;;;6258206;28;20505;-71
2023/09/25 13:29:01;;;;;;;6.10;1.75;;;;;;;;;;6260654;28;20299;-71
2023/09/25 13:32:05;;;;;;;5.50;1.80;;;;;;;;;;6260849;28;20303;-69
2023/09/25 13:35:09;;;;;;;2.17;1.80;;;;;;;;;;6257764;28;20303;-70
2023/09/25 13:38:13;;;;;;;1.95;1.85;;;;;;;;;;6260824;28;20299;-70
2023/09/25 13:41:17;;;;;;;1.85;1.75;;;;;;;;;;6258273;28;20299;-70
2023/09/25 13:44:22;;;;;;;3.28;1.50;;;;;;;;;;6260348;28;20291;-71
2023/09/25 13:47:26;;;;;;;4.68;1.65;;;;;;;;;;6260688;28;20332;-70
2023/09/25 13:50:30;;;;;;;2.58;1.52;;;;;;;;;;6259997;28;20414;-70
2023/09/25 13:53:34;;;;;;;3.17;2.08;;;;;;;;;;6260113;28;20296;-70
2023/09/25 13:56:38;;;;;;;2.05;1.70;;;;;;;;;;6260698;28;20304;-70
2023/09/25 13:59:44;;;;;;;8.35;1.90;;;;;;;;;;6259648;28;20294;-71
2023/09/25 14:02:48;;;;;;;7.75;1.80;;;;;;;;;;6260182;28;20329;-72
2023/09/25 14:05:52;;;;;;;6.03;2.03;;;;;;;;;;6259210;28;20304;-71
2023/09/25 14:08:56;;;;;;;4.32;1.98;;;;;;;;;;6259255;28;20311;-71
2023/09/25 14:12:00;;;;;;;9.45;1.90;;;;;;;;;;6259787;28;20296;-71
2023/09/25 14:15:10;;;;;;;2.58;1.52;;;;;;;;;;6259254;28;20343;-70
2023/09/25 14:18:13;;;;;;;3.53;1.98;;;;;;;;;;6259662;28;20296;-70
2023/09/25 14:21:20;;;;;;;8.27;1.60;;;;;;;;;;6259579;28;20283;-71
2023/09/25 14:24:23;;;;;;;5.18;1.90;;;;;;;;;;6259133;28;20287;-70
2023/09/25 14:27:27;;;;;;;10.18;2.15;;;;;;;;;;6259423;28;20307;-71
2023/09/25 14:30:33;;;;;;;3.97;1.92;;;;;;;;;;6259050;28;20311;-72
2023/09/25 14:33:39;;;;;;;4.38;2.20;;;;;;;;;;6257739;28;20307;-71
2023/09/25 14:36:43;;;;;;;8.43;1.80;;;;;;;;;;6274179;28;20300;-71
2023/09/25 14:39:48;;;;;;;2.85;1.92;;;;;;;;;;6256919;28;20295;-71
2023/09/25 14:42:54;;;;;;;4.93;2.08;;;;;;;;;;6259139;28;20248;-71
2023/09/25 14:46:02;;;;;;;2.58;2.35;;;;;;;;;;6257386;28;20331;-70
2023/09/25 14:49:08;;;;;;;12.70;2.30;;;;;;;;;;6258491;28;20295;-70
2023/09/25 14:52:12;;;;;;;7.20;2.42;;;;;;;;;;6259089;28;20295;-71
2023/09/25 14:55:16;;;;;;;6.57;2.70;;;;;;;;;;6258355;28;20304;-71
2023/09/25 14:58:20;;;;;;;6.93;2.22;;;;;;;;;;6258860;28;20287;-70
2023/09/25 15:01:25;;;;;;;3.75;2.10;;;;;;;;;;6258492;28;20444;-70
2023/09/25 15:04:29;;;;;;;4.50;2.25;;;;;;;;;;6258037;28;20297;-71
2023/09/25 15:07:35;;;;;;;3.40;2.13;;;;;;;;;;6258389;28;20303;-71
2023/09/25 15:10:39;;;;;;;2.22;2.00;;;;;;;;;;6257943;28;20299;-71
2023/09/25 15:13:43;;;;;;;3.00;1.80;;;;;;;;;;6257843;28;20299;-71
2023/09/25 15:16:48;;;;;;;2.35;2.20;;;;;;;;;;6258526;28;20304;-71
2023/09/25 15:19:52;;;;;;;2.42;1.90;;;;;;;;;;6258212;28;20307;-72
2023/09/25 15:22:56;;;;;;;5.00;1.90;;;;;;;;;;6258418;28;20299;-73
2023/09/25 15:25:59;;;;;;;3.45;2.00;;;;;;;;;;6258193;28;20350;-70
2023/09/25 15:29:03;;;;;;;2.90;2.65;;;;;;;;;;6258145;28;20295;-73
2023/09/25 15:32:10;;;;;;;2.72;2.50;;;;;;;;;;6258305;28;20465;-69
2023/09/25 15:35:15;;;;;;;7.18;2.65;;;;;;;;;;6257885;28;20306;-70
2023/09/25 15:38:19;;;;;;;6.82;2.35;;;;;;;;;;6258159;28;20640;-73
2023/09/25 15:41:22;;;;;;;4.40;2.13;;;;;;;;;;6251767;28;20649;-73
2023/09/25 15:44:26;;;;;;;3.15;1.83;;;;;;;;;;6233193;28;20312;-72
2023/09/25 15:47:32;;;;;;;3.90;1.77;;;;;;;;;;6233539;28;20300;-73
2023/09/25 15:50:35;;;;;;;2.08;1.63;;;;;;;;;;6233127;28;20300;-71
2023/09/25 15:53:39;;;;;;;5.07;2.22;;;;;;;;;;6232748;28;20300;-73
2023/09/25 15:56:43;;;;;;;5.10;2.30;;;;;;;;;;6233670;28;20291;-73
2023/09/25 15:59:47;;;;;;;4.68;3.13;;;;;;;;;;6233484;28;20292;-71
2023/09/25 16:02:52;;;;;;;7.50;2.20;;;;;;;;;;6234184;28;20284;-72
2023/09/25 16:05:56;;;;;;;7.57;2.63;;;;;;;;;;6232544;28;20300;-71
2023/09/25 16:09:00;;;;;;;8.30;2.40;;;;;;;;;;6232485;28;20292;-71
2023/09/25 16:12:03;;;;;;;4.30;2.10;;;;;;;;;;6248815;28;20307;-71
2023/09/25 16:15:09;;;;;;;2.20;2.08;;;;;;;;;;6257070;28;20291;-73
2023/09/25 16:18:14;;;;;;;4.28;2.22;;;;;;;;;;6272493;28;20299;-70
2023/09/25 16:21:18;;;;;;;3.13;2.58;;;;;;;;;;6256769;28;20295;-70
2023/09/25 16:24:22;;;;;;;7.10;2.40;;;;;;;;;;6256855;28;20299;-70
2023/09/25 16:27:26;;;;;;;4.53;2.15;;;;;;;;;;6256363;28;20958;-70
2023/09/25 16:30:29;;;;;;;6.50;2.30;;;;;;;;;;6256836;28;20363;-70
2023/09/25 16:33:37;;;;;;;5.05;2.33;;;;;;;;;;6255418;28;20303;-70
2023/09/25 16:36:41;;;;;;;6.53;2.45;;;;;;;;;;6257110;28;20248;-70
2023/09/25 16:39:45;;;;;;;4.57;2.28;;;;;;;;;;6254324;28;20295;-70
2023/09/25 16:42:49;;;;;;;4.70;2.25;;;;;;;;;;6255607;28;20355;-72
2023/09/25 16:45:55;;;;;;;4.38;2.80;;;;;;;;;;6256473;28;20568;-71
2023/09/25 16:49:00;;;;;;;2.83;2.55;;;;;;;;;;6256421;28;20594;-70
2023/09/25 16:52:04;;;;;;;6.45;3.03;;;;;;;;;;6256424;28;20287;-70
2023/09/25 16:55:09;;;;;;;5.22;3.22;;;;;;;;;;6256288;28;20481;-70
2023/09/25 16:58:13;;;;;;;4.75;2.75;;;;;;;;;;6257102;28;20303;-73
2023/09/25 17:01:17;;;;;;;6.22;2.60;;;;;;;;;;6259171;28;20663;-71
2023/09/25 17:04:23;;;;;;;6.78;2.88;;;;;;;;;;6260689;28;20302;-72
2023/09/25 17:07:27;;;;;;;6.20;2.95;;;;;;;;;;6261221;28;20300;-72
2023/09/25 17:10:31;;;;;;;4.70;2.60;;;;;;;;;;6260866;28;20283;-73
2023/09/25 17:13:34;;;;;;;3.55;3.10;;;;;;;;;;6260822;28;20311;-70
2023/09/25 17:16:38;;;;;;;6.82;3.55;;;;;;;;;;6261055;28;20311;-70
2023/09/25 17:19:43;;;;;;;10.60;3.75;;;;;;;;;;6260758;28;20295;-72
2023/09/25 17:22:47;;;;;;;6.43;3.33;;;;;;;;;;6261191;28;20296;-71
2023/09/25 17:25:51;;;;;;;3.28;3.05;;;;;;;;;;6260577;28;20303;-71
2023/09/25 17:28:55;;;;;;;5.05;3.35;;;;;;;;;;6260350;28;20313;-71
2023/09/25 17:31:58;;;;;;;5.50;3.30;;;;;;;;;;6260608;28;20492;-73
2023/09/25 17:35:04;;;;;;;8.13;3.55;;;;;;;;;;6260394;28;20335;-71
2023/09/25 17:38:08;;;;;;;5.47;3.30;;;;;;;;;;6261207;28;20299;-71
2023/09/25 17:41:14;;;;;;;10.20;3.35;;;;;;;;;;6258382;28;20294;-71
2023/09/25 17:44:17;;;;;;;6.93;3.30;;;;;;;;;;6260434;28;20608;-72
2023/09/25 17:47:21;;;;;;;5.43;3.40;;;;;;;;;;6260324;28;20295;-73
2023/09/25 17:50:26;;;;;;;7.97;3.88;;;;;;;;;;6258433;28;20299;-71
2023/09/25 17:53:30;;;;;;;7.45;4.20;;;;;;;;;;6259489;28;20296;-69
2023/09/25 17:56:34;;;;;;;9.02;3.20;;;;;;;;;;6260458;28;20300;-70
2023/09/25 17:59:38;;;;;;;4.90;3.40;;;;;;;;;;6258107;28;20303;-72
2023/09/25 18:02:42;;;;;;;5.32;3.10;;;;;;;;;;6260547;28;20303;-71
2023/09/25 18:05:47;;;;;;;6.47;3.92;;;;;;;;;;6259596;28;20291;-70
2023/09/25 18:08:51;;;;;;;8.40;3.67;;;;;;;;;;6259533;28;20292;-71
2023/09/25 18:11:55;;;;;;;5.10;3.50;;;;;;;;;;6259002;28;20300;-71
2023/09/25 18:15:04;;;;;;;9.07;3.20;;;;;;;;;;6258938;28;20251;-70
2023/09/25 18:18:08;;;;;;;5.50;2.85;;;;;;;;;;6259797;28;20307;-70
2023/09/25 18:21:14;;;;;;;10.70;3.15;;;;;;;;;;6259060;28;20288;-72
2023/09/25 18:24:18;;;;;;;6.43;2.80;;;;;;;;;;6259172;28;20299;-71
2023/09/25 18:27:22;;;;;;;3.88;3.13;;;;;;;;;;6259244;28;20295;-71